createdAt,value
2016-05-16T00:00:07.006Z,4.6
2016-05-16T00:00:17.006Z,4.62
2016-05-16T00:00:27.006Z,4.63
2016-05-16T00:00:37.021Z,4.59
2016-05-16T00:00:47.021Z,4.62
2016-05-16T00:00:56.865Z,4.63
2016-05-16T00:01:07.040Z,4.6
2016-05-16T00:01:17.040Z,4.63
2016-05-16T00:01:27.040Z,4.54
2016-05-16T00:01:37.040Z,4.51
2016-05-16T00:01:47.040Z,4.55
2016-05-16T00:01:56.915Z,4.6
2016-05-16T00:02:07.059Z,4.58
2016-05-16T00:02:17.074Z,4.54
2016-05-16T00:02:27.059Z,4.54
2016-05-16T00:02:37.074Z,4.54
2016-05-16T00:02:47.074Z,4.58
2016-05-16T00:02:57.074Z,4.55
2016-05-16T00:03:07.092Z,4.58
2016-05-16T00:03:17.092Z,4.54
2016-05-16T00:03:27.092Z,4.54
2016-05-16T00:03:37.092Z,4.54
2016-05-16T00:03:47.108Z,4.54
2016-05-16T00:03:57.108Z,4.5
2016-05-16T00:04:07.111Z,4.66
2016-05-16T00:04:17.111Z,4.69
2016-05-16T00:04:27.111Z,4.58
2016-05-16T00:04:37.111Z,4.54
2016-05-16T00:04:47.142Z,4.52
2016-05-16T00:04:57.564Z,4.5
2016-05-16T00:05:07.128Z,4.62
2016-05-16T00:05:17.144Z,4.54
2016-05-16T00:05:27.316Z,4.6
2016-05-16T00:05:37.144Z,4.52
2016-05-16T00:05:47.159Z,4.55
2016-05-16T00:05:57.159Z,4.55
2016-05-16T00:06:07.163Z,4.6
2016-05-16T00:06:17.163Z,4.52
2016-05-16T00:06:27.679Z,4.59
2016-05-16T00:06:37.023Z,4.59
2016-05-16T00:06:47.179Z,4.47
2016-05-16T00:06:57.179Z,4.55
2016-05-16T00:07:07.197Z,4.63
2016-05-16T00:07:17.197Z,4.48
2016-05-16T00:07:27.197Z,4.52
2016-05-16T00:07:37.212Z,4.55
2016-05-16T00:07:47.197Z,4.55
2016-05-16T00:07:57.212Z,4.58
2016-05-16T00:08:07.215Z,4.58
2016-05-16T00:08:17.215Z,4.69
2016-05-16T00:08:27.075Z,4.55
2016-05-16T00:08:37.231Z,4.54
2016-05-16T00:08:47.247Z,4.6
2016-05-16T00:08:57.262Z,4.54
2016-05-16T00:09:07.233Z,4.55
2016-05-16T00:09:17.249Z,4.69
2016-05-16T00:09:27.249Z,4.58
2016-05-16T00:09:37.249Z,4.6
2016-05-16T00:09:47.249Z,4.58
2016-05-16T00:09:57.264Z,4.63
2016-05-16T00:10:07.267Z,4.6
2016-05-16T00:10:17.267Z,4.55
2016-05-16T00:10:27.267Z,4.51
2016-05-16T00:10:37.267Z,4.54
2016-05-16T00:10:47.283Z,4.59
2016-05-16T00:10:57.127Z,4.54
2016-05-16T00:11:07.300Z,4.55
2016-05-16T00:11:17.285Z,4.55
2016-05-16T00:11:27.144Z,4.54
2016-05-16T00:11:37.144Z,4.6
2016-05-16T00:11:47.300Z,4.54
2016-05-16T00:11:57.316Z,4.58
2016-05-16T00:12:07.319Z,4.52
2016-05-16T00:12:17.319Z,4.62
2016-05-16T00:12:27.319Z,4.55
2016-05-16T00:12:37.335Z,4.63
2016-05-16T00:12:47.335Z,4.63
2016-05-16T00:12:57.335Z,4.55
2016-05-16T00:13:07.339Z,4.55
2016-05-16T00:13:17.354Z,4.58
2016-05-16T00:13:27.198Z,4.67
2016-05-16T00:13:37.354Z,4.65
2016-05-16T00:13:47.354Z,4.58
2016-05-16T00:13:57.354Z,4.66
2016-05-16T00:14:07.372Z,4.62
2016-05-16T00:14:17.372Z,4.54
2016-05-16T00:14:27.372Z,4.6
2016-05-16T00:14:37.372Z,4.63
2016-05-16T00:14:47.388Z,4.62
2016-05-16T00:14:57.388Z,4.55
2016-05-16T00:15:07.391Z,4.66
2016-05-16T00:15:17.234Z,4.65
2016-05-16T00:15:27.406Z,4.59
2016-05-16T00:15:37.406Z,4.62
2016-05-16T00:15:47.406Z,4.63
2016-05-16T00:15:57.406Z,4.69
2016-05-16T00:16:07.424Z,4.63
2016-05-16T00:16:17.424Z,4.69
2016-05-16T00:16:27.424Z,4.73
2016-05-16T00:16:37.424Z,4.69
2016-05-16T00:16:47.439Z,4.73
2016-05-16T00:16:57.283Z,4.59
2016-05-16T00:17:07.442Z,4.69
2016-05-16T00:17:17.442Z,4.67
2016-05-16T00:17:27.302Z,4.66
2016-05-16T00:17:37.458Z,4.69
2016-05-16T00:17:47.458Z,4.67
2016-05-16T00:17:57.458Z,4.69
2016-05-16T00:18:07.476Z,4.67
2016-05-16T00:18:17.476Z,4.65
2016-05-16T00:18:27.476Z,4.7
2016-05-16T00:18:37.476Z,4.75
2016-05-16T00:18:47.319Z,4.66
2016-05-16T00:18:57.335Z,4.72
2016-05-16T00:19:07.494Z,4.7
2016-05-16T00:19:17.494Z,4.78
2016-05-16T00:19:27.510Z,4.84
2016-05-16T00:19:37.354Z,4.73
2016-05-16T00:19:47.510Z,4.72
2016-05-16T00:19:57.526Z,4.75
2016-05-16T00:20:07.372Z,4.78
2016-05-16T00:20:17.529Z,4.77
2016-05-16T00:20:27.372Z,4.78
2016-05-16T00:20:37.404Z,4.77
2016-05-16T00:20:47.544Z,4.78
2016-05-16T00:20:57.388Z,4.73
2016-05-16T00:21:07.547Z,4.75
2016-05-16T00:21:17.547Z,4.75
2016-05-16T00:21:27.547Z,4.78
2016-05-16T00:21:37.563Z,4.78
2016-05-16T00:21:47.563Z,4.67
2016-05-16T00:21:57.407Z,4.73
2016-05-16T00:22:07.565Z,4.73
2016-05-16T00:22:17.580Z,4.73
2016-05-16T00:22:27.580Z,4.7
2016-05-16T00:22:37.612Z,4.73
2016-05-16T00:22:47.440Z,4.75
2016-05-16T00:22:57.440Z,4.66
2016-05-16T00:23:07.599Z,4.82
2016-05-16T00:23:17.599Z,4.67
2016-05-16T00:23:27.443Z,4.77
2016-05-16T00:23:37.615Z,4.72
2016-05-16T00:23:47.615Z,4.78
2016-05-16T00:23:57.615Z,4.72
2016-05-16T00:24:07.618Z,4.72
2016-05-16T00:24:17.633Z,4.73
2016-05-16T00:24:27.633Z,4.77
2016-05-16T00:24:37.633Z,4.73
2016-05-16T00:24:47.649Z,4.69
2016-05-16T00:24:57.649Z,4.77
2016-05-16T00:25:21.824Z,4.73
2016-05-16T00:25:26.589Z,4.7
2016-05-16T00:25:36.558Z,4.72
2016-05-16T00:25:46.574Z,4.73
2016-05-16T00:25:56.574Z,4.77
2016-05-16T00:26:06.591Z,4.67
2016-05-16T00:26:16.591Z,4.75
2016-05-16T00:26:26.591Z,4.7
2016-05-16T00:26:36.591Z,4.78
2016-05-16T00:26:46.607Z,4.77
2016-05-16T00:26:56.591Z,4.78
2016-05-16T00:27:06.594Z,4.7
2016-05-16T00:27:16.610Z,4.78
2016-05-16T00:27:26.610Z,4.66
2016-05-16T00:27:36.626Z,4.75
2016-05-16T00:27:46.469Z,4.78
2016-05-16T00:27:56.469Z,4.73
2016-05-16T00:28:06.472Z,4.62
2016-05-16T00:28:16.472Z,4.66
2016-05-16T00:28:26.644Z,4.75
2016-05-16T00:28:36.644Z,4.7
2016-05-16T00:28:46.644Z,4.69
2016-05-16T00:28:56.644Z,4.69
2016-05-16T00:29:06.662Z,4.69
2016-05-16T00:29:16.662Z,4.69
2016-05-16T00:29:26.662Z,4.66
2016-05-16T00:29:36.506Z,4.66
2016-05-16T00:29:46.678Z,4.69
2016-05-16T00:29:56.678Z,4.65
2016-05-16T00:30:06.681Z,4.73
2016-05-16T00:30:16.696Z,4.75
2016-05-16T00:30:26.681Z,4.66
2016-05-16T00:30:36.696Z,4.66
2016-05-16T00:30:46.696Z,4.7
2016-05-16T00:30:56.696Z,4.69
2016-05-16T00:31:06.714Z,4.69
2016-05-16T00:31:16.667Z,4.8
2016-05-16T00:31:26.745Z,4.7
2016-05-16T00:31:36.651Z,4.7
2016-05-16T00:31:46.823Z,4.72
2016-05-16T00:31:56.729Z,4.73
2016-05-16T00:32:15.218Z,4.67
2016-05-16T00:32:25.343Z,4.7
2016-05-16T00:32:35.358Z,4.67
2016-05-16T00:32:45.358Z,4.7
2016-05-16T00:32:55.374Z,4.75
2016-05-16T00:33:05.360Z,4.72
2016-05-16T00:33:15.376Z,4.7
2016-05-16T00:33:25.220Z,4.69
2016-05-16T00:33:35.376Z,4.7
2016-05-16T00:33:45.392Z,4.67
2016-05-16T00:33:55.392Z,4.7
2016-05-16T00:34:05.395Z,4.73
2016-05-16T00:34:15.254Z,4.69
2016-05-16T00:34:25.395Z,4.67
2016-05-16T00:34:35.410Z,4.65
2016-05-16T00:34:46.223Z,4.7
2016-05-16T00:34:55.535Z,4.69
2016-05-16T00:35:06.037Z,4.62
2016-05-16T00:35:15.444Z,4.65
2016-05-16T00:35:25.272Z,4.72
2016-05-16T00:35:36.272Z,4.63
2016-05-16T00:35:45.444Z,4.65
2016-05-16T00:35:55.444Z,4.69
2016-05-16T00:36:05.447Z,4.62
2016-05-16T00:36:15.290Z,4.54
2016-05-16T00:36:25.462Z,4.65
2016-05-16T00:36:35.447Z,4.55
2016-05-16T00:36:45.462Z,4.59
2016-05-16T00:36:55.462Z,4.6
2016-05-16T00:37:05.465Z,4.52
2016-05-16T00:37:15.481Z,4.6
2016-05-16T00:37:25.481Z,4.67
2016-05-16T00:37:35.481Z,4.65
2016-05-16T00:37:45.325Z,4.62
2016-05-16T00:37:55.481Z,4.55
2016-05-16T00:38:05.498Z,4.54
2016-05-16T00:38:15.498Z,4.54
2016-05-16T00:38:25.498Z,4.63
2016-05-16T00:38:35.514Z,4.59
2016-05-16T00:38:45.514Z,4.58
2016-05-16T00:38:55.514Z,4.55
2016-05-16T00:39:05.517Z,4.54
2016-05-16T00:39:15.376Z,4.67
2016-05-16T00:39:25.392Z,4.6
2016-05-16T00:39:35.533Z,4.55
2016-05-16T00:39:45.533Z,4.58
2016-05-16T00:39:55.548Z,4.66
2016-05-16T00:40:05.536Z,4.54
2016-05-16T00:40:15.551Z,4.52
2016-05-16T00:40:25.551Z,4.58
2016-05-16T00:40:35.567Z,4.54
2016-05-16T00:40:45.583Z,4.62
2016-05-16T00:40:55.567Z,4.58
2016-05-16T00:41:05.570Z,4.55
2016-05-16T00:41:15.586Z,4.52
2016-05-16T00:41:25.586Z,4.58
2016-05-16T00:41:35.586Z,4.51
2016-05-16T00:41:45.601Z,4.62
2016-05-16T00:41:55.601Z,4.51
2016-05-16T00:42:05.603Z,4.62
2016-05-16T00:42:15.603Z,4.5
2016-05-16T00:42:25.603Z,4.54
2016-05-16T00:42:35.619Z,4.55
2016-05-16T00:42:45.619Z,4.54
2016-05-16T00:42:55.619Z,4.59
2016-05-16T00:43:05.622Z,4.58
2016-05-16T00:43:15.622Z,4.55
2016-05-16T00:43:25.637Z,4.52
2016-05-16T00:43:35.637Z,4.58
2016-05-16T00:43:45.637Z,4.55
2016-05-16T00:43:55.637Z,4.52
2016-05-16T00:44:05.655Z,4.54
2016-05-16T00:44:15.655Z,4.58
2016-05-16T00:44:25.655Z,4.54
2016-05-16T00:44:35.655Z,4.54
2016-05-16T00:44:45.671Z,4.51
2016-05-16T00:44:55.671Z,4.54
2016-05-16T00:45:05.533Z,4.54
2016-05-16T00:45:15.689Z,4.54
2016-05-16T00:45:25.533Z,4.54
2016-05-16T00:45:35.689Z,4.52
2016-05-16T00:45:45.705Z,4.51
2016-05-16T00:45:55.689Z,4.58
2016-05-16T00:46:05.708Z,4.54
2016-05-16T00:46:15.708Z,4.58
2016-05-16T00:46:25.708Z,4.45
2016-05-16T00:46:35.708Z,4.59
2016-05-16T00:46:45.724Z,4.54
2016-05-16T00:46:55.724Z,4.47
2016-05-16T00:47:05.727Z,4.55
2016-05-16T00:47:15.727Z,4.48
2016-05-16T00:47:25.742Z,4.51
2016-05-16T00:47:35.742Z,4.5
2016-05-16T00:47:45.758Z,4.52
2016-05-16T00:47:55.602Z,4.55
2016-05-16T00:48:05.760Z,4.52
2016-05-16T00:48:15.760Z,4.5
2016-05-16T00:48:25.760Z,4.58
2016-05-16T00:48:35.760Z,4.54
2016-05-16T00:48:45.775Z,4.51
2016-05-16T00:48:55.775Z,4.5
2016-05-16T00:49:05.778Z,4.44
2016-05-16T00:49:15.638Z,4.54
2016-05-16T00:49:25.778Z,4.44
2016-05-16T00:49:35.794Z,4.55
2016-05-16T00:49:45.810Z,4.54
2016-05-16T00:49:55.794Z,4.5
2016-05-16T00:50:05.813Z,4.44
2016-05-16T00:50:16.078Z,4.55
2016-05-16T00:50:25.813Z,4.47
2016-05-16T00:50:36.172Z,4.44
2016-05-16T00:50:45.672Z,4.45
2016-05-16T00:50:55.672Z,4.47
2016-05-16T00:51:05.877Z,4.5
2016-05-16T00:51:15.846Z,4.55
2016-05-16T00:51:25.893Z,4.44
2016-05-16T00:51:35.846Z,4.42
2016-05-16T00:51:45.862Z,4.47
2016-05-16T00:51:55.690Z,4.47
2016-05-16T00:52:05.849Z,4.44
2016-05-16T00:52:15.865Z,4.45
2016-05-16T00:52:25.708Z,4.4
2016-05-16T00:52:35.865Z,4.51
2016-05-16T00:52:45.865Z,4.42
2016-05-16T00:52:55.880Z,4.44
2016-05-16T00:53:05.883Z,4.42
2016-05-16T00:53:15.883Z,4.44
2016-05-16T00:53:25.883Z,4.47
2016-05-16T00:53:35.899Z,4.5
2016-05-16T00:53:45.899Z,4.45
2016-05-16T00:53:55.899Z,4.45
2016-05-16T00:54:05.902Z,4.45
2016-05-16T00:54:15.917Z,4.41
2016-05-16T00:54:25.917Z,4.5
2016-05-16T00:54:35.761Z,4.45
2016-05-16T00:54:45.917Z,4.48
2016-05-16T00:54:55.933Z,4.45
2016-05-16T00:55:05.935Z,4.45
2016-05-16T00:55:15.935Z,4.45
2016-05-16T00:55:25.935Z,4.42
2016-05-16T00:55:35.951Z,4.45
2016-05-16T00:55:45.794Z,4.51
2016-05-16T00:55:55.951Z,4.42
2016-05-16T00:56:05.969Z,4.5
2016-05-16T00:56:15.969Z,4.48
2016-05-16T00:56:25.969Z,4.33
2016-05-16T00:56:35.969Z,4.44
2016-05-16T00:56:45.829Z,4.45
2016-05-16T00:56:55.969Z,4.42
2016-05-16T00:57:06.004Z,4.42
2016-05-16T00:57:15.988Z,4.33
2016-05-16T00:57:25.988Z,4.45
2016-05-16T00:57:36.004Z,4.33
2016-05-16T00:57:46.004Z,4.44
2016-05-16T00:57:56.035Z,4.4
2016-05-16T00:58:05.850Z,4.3
2016-05-16T00:58:16.007Z,4.32
2016-05-16T00:58:26.038Z,4.36
2016-05-16T00:58:36.085Z,4.37
2016-05-16T00:58:46.038Z,4.36
2016-05-16T00:58:56.022Z,4.42
2016-05-16T00:59:06.039Z,4.33
2016-05-16T00:59:16.039Z,4.34
2016-05-16T00:59:25.883Z,4.34
2016-05-16T00:59:36.054Z,4.36
2016-05-16T00:59:46.070Z,4.29
2016-05-16T00:59:56.070Z,4.34
2016-05-16T01:00:06.057Z,4.32
2016-05-16T01:00:15.917Z,4.33
2016-05-16T01:00:26.073Z,4.33
2016-05-16T01:00:35.917Z,4.34
2016-05-16T01:00:46.073Z,4.34
2016-05-16T01:00:56.073Z,4.34
2016-05-16T01:01:06.092Z,4.36
2016-05-16T01:01:16.092Z,4.37
2016-05-16T01:01:26.107Z,4.33
2016-05-16T01:01:36.154Z,4.33
2016-05-16T01:01:45.951Z,4.29
2016-05-16T01:01:56.107Z,4.34
2016-05-16T01:02:06.173Z,4.34
2016-05-16T01:02:35.360Z,4.3
2016-05-16T01:02:45.345Z,4.33
2016-05-16T01:02:55.345Z,4.32
2016-05-16T01:03:05.348Z,4.27
2016-05-16T01:03:15.426Z,4.32
2016-05-16T01:03:25.363Z,4.32
2016-05-16T01:03:35.582Z,4.34
2016-05-16T01:03:45.379Z,4.26
2016-05-16T01:03:55.379Z,4.33
2016-05-16T01:04:05.381Z,4.33
2016-05-16T01:04:15.381Z,4.29
2016-05-16T01:04:25.240Z,4.26
2016-05-16T01:04:35.397Z,4.33
2016-05-16T01:04:45.756Z,4.3
2016-05-16T01:04:55.397Z,4.27
2016-05-16T01:05:05.853Z,4.33
2016-05-16T01:05:15.431Z,4.32
2016-05-16T01:05:25.696Z,4.32
2016-05-16T01:05:36.228Z,4.3
2016-05-16T01:05:45.415Z,4.34
2016-05-16T01:05:56.821Z,4.33
2016-05-16T01:06:15.839Z,4.33
2016-05-16T01:06:25.886Z,4.33
2016-05-16T01:06:35.823Z,4.2
2016-05-16T01:06:45.823Z,4.23
2016-05-16T01:06:55.823Z,4.29
2016-05-16T01:07:05.827Z,4.23
2016-05-16T01:07:15.843Z,4.29
2016-05-16T01:07:25.843Z,4.24
2016-05-16T01:07:35.843Z,4.32
2016-05-16T01:07:45.859Z,4.26
2016-05-16T01:07:55.859Z,4.29
2016-05-16T01:08:05.861Z,4.24
2016-05-16T01:08:16.970Z,4.3
2016-05-16T01:08:25.876Z,4.23
2016-05-16T01:08:35.892Z,4.27
2016-05-16T01:08:45.876Z,4.23
2016-05-16T01:08:55.876Z,4.23
2016-05-16T01:09:05.879Z,4.24
2016-05-16T01:09:15.879Z,4.26
2016-05-16T01:09:25.895Z,4.23
2016-05-16T01:09:35.895Z,4.2
2016-05-16T01:09:45.911Z,4.26
2016-05-16T01:09:55.911Z,4.18
2016-05-16T01:10:05.914Z,4.23
2016-05-16T01:10:15.914Z,4.23
2016-05-16T01:10:25.914Z,4.14
2016-05-16T01:10:54.632Z,4.23
2016-05-16T01:11:04.757Z,4.22
2016-05-16T01:11:14.759Z,4.14
2016-05-16T01:11:24.775Z,4.2
2016-05-16T01:11:34.775Z,4.2
2016-05-16T01:11:44.775Z,4.16
2016-05-16T01:11:54.634Z,4.26
2016-05-16T01:12:04.791Z,4.16
2016-05-16T01:12:14.809Z,4.29
2016-05-16T01:12:24.809Z,4.24
2016-05-16T01:12:34.809Z,4.2
2016-05-16T01:12:44.809Z,4.12
2016-05-16T01:12:54.809Z,4.18
2016-05-16T01:13:04.825Z,4.16
2016-05-16T01:13:14.828Z,4.15
2016-05-16T01:13:24.828Z,4.22
2016-05-16T01:13:35.000Z,4.16
2016-05-16T01:13:44.828Z,4.16
2016-05-16T01:13:55.109Z,4.26
2016-05-16T01:14:05.406Z,4.18
2016-05-16T01:14:14.971Z,4.2
2016-05-16T01:14:24.940Z,4.14
2016-05-16T01:14:35.268Z,4.26
2016-05-16T01:14:44.862Z,4.2
2016-05-16T01:14:54.862Z,4.18
2016-05-16T01:15:04.862Z,4.18
2016-05-16T01:15:14.880Z,4.26
2016-05-16T01:15:24.880Z,4.15
2016-05-16T01:15:34.880Z,4.16
2016-05-16T01:15:44.880Z,4.23
2016-05-16T01:15:54.973Z,4.27
2016-05-16T01:16:04.942Z,4.2
2016-05-16T01:16:24.319Z,4.2
2016-05-16T01:16:44.038Z,4.16
2016-05-16T01:17:03.179Z,4.2
2016-05-16T01:17:13.291Z,4.12
2016-05-16T01:17:23.432Z,4.16
2016-05-16T01:17:33.135Z,4.22
2016-05-16T01:17:43.135Z,4.18
2016-05-16T01:17:52.978Z,4.2
2016-05-16T01:18:03.150Z,4.2
2016-05-16T01:18:13.153Z,4.16
2016-05-16T01:18:23.044Z,4.15
2016-05-16T01:18:33.153Z,4.16
2016-05-16T01:18:43.153Z,4.12
2016-05-16T01:18:53.169Z,4.14
2016-05-16T01:19:03.169Z,4.16
2016-05-16T01:19:13.172Z,4.12
2016-05-16T01:19:23.172Z,4.2
2016-05-16T01:19:33.172Z,4.12
2016-05-16T01:19:43.297Z,4.22
2016-05-16T01:19:53.188Z,4.08
2016-05-16T01:20:03.234Z,4.18
2016-05-16T01:20:13.800Z,4.16
2016-05-16T01:20:23.581Z,4.23
2016-05-16T01:20:33.206Z,4.08
2016-05-16T01:20:43.206Z,4.22
2016-05-16T01:20:53.222Z,4.11
2016-05-16T01:21:03.222Z,4.2
2016-05-16T01:21:13.224Z,4.11
2016-05-16T01:21:23.224Z,4.16
2016-05-16T01:21:33.239Z,4.16
2016-05-16T01:21:43.239Z,4.2
2016-05-16T01:21:53.239Z,4.15
2016-05-16T01:22:03.239Z,4.14
2016-05-16T01:22:13.273Z,4.18
2016-05-16T01:22:23.570Z,4.16
2016-05-16T01:22:33.570Z,4.18
2016-05-16T01:22:43.273Z,4.15
2016-05-16T01:22:53.288Z,4.18
2016-05-16T01:23:03.429Z,4.2
2016-05-16T01:23:13.277Z,4.12
2016-05-16T01:23:23.277Z,4.22
2016-05-16T01:23:33.620Z,4.24
2016-05-16T01:23:43.745Z,4.22
2016-05-16T01:23:53.292Z,4.18
2016-05-16T01:24:03.699Z,4.23
2016-05-16T01:24:13.295Z,4.18
2016-05-16T01:24:23.436Z,4.23
2016-05-16T01:24:33.311Z,4.23
2016-05-16T01:24:43.311Z,4.16
2016-05-16T01:24:53.311Z,4.24
2016-05-16T01:25:03.342Z,4.29
2016-05-16T01:25:13.329Z,4.24
2016-05-16T01:25:23.875Z,4.26
2016-05-16T01:25:42.969Z,4.24
2016-05-16T01:25:52.954Z,4.23
2016-05-16T01:26:02.954Z,4.34
2016-05-16T01:26:12.924Z,4.18
2016-05-16T01:26:23.096Z,4.27
2016-05-16T01:26:32.956Z,4.24
2016-05-16T01:26:42.971Z,4.23
2016-05-16T01:26:53.487Z,4.2
2016-05-16T01:27:12.553Z,4.3
2016-05-16T01:27:22.631Z,4.24
2016-05-16T01:27:33.022Z,4.32
2016-05-16T01:27:52.038Z,4.32
2016-05-16T01:28:02.178Z,4.33
2016-05-16T01:28:12.023Z,4.34
2016-05-16T01:28:22.039Z,4.29
2016-05-16T01:28:32.586Z,4.33
2016-05-16T01:28:42.039Z,4.33
2016-05-16T01:28:52.039Z,4.33
2016-05-16T01:29:02.039Z,4.4
2016-05-16T01:29:12.058Z,4.3
2016-05-16T01:29:22.355Z,4.4
2016-05-16T01:29:32.058Z,4.4
2016-05-16T01:29:42.058Z,4.41
2016-05-16T01:29:52.058Z,4.32
2016-05-16T01:30:02.074Z,4.33
2016-05-16T01:30:12.076Z,4.41
2016-05-16T01:30:21.920Z,4.45
2016-05-16T01:30:32.076Z,4.45
2016-05-16T01:30:42.092Z,4.4
2016-05-16T01:30:51.935Z,4.36
2016-05-16T01:31:01.935Z,4.4
2016-05-16T01:31:11.954Z,4.4
2016-05-16T01:31:22.110Z,4.45
2016-05-16T01:31:32.110Z,4.51
2016-05-16T01:31:42.110Z,4.51
2016-05-16T01:31:51.954Z,4.5
2016-05-16T01:32:02.126Z,4.47
2016-05-16T01:32:12.129Z,4.47
2016-05-16T01:32:22.129Z,4.45
2016-05-16T01:32:32.144Z,4.45
2016-05-16T01:32:42.144Z,4.42
2016-05-16T01:32:52.144Z,4.47
2016-05-16T01:33:02.144Z,4.54
2016-05-16T01:33:11.991Z,4.44
2016-05-16T01:33:22.163Z,4.42
2016-05-16T01:33:32.397Z,4.4
2016-05-16T01:33:42.163Z,4.41
2016-05-16T01:33:52.444Z,4.45
2016-05-16T01:34:11.384Z,4.54
2016-05-16T01:34:21.368Z,4.42
2016-05-16T01:34:31.368Z,4.55
2016-05-16T01:34:41.618Z,4.54
2016-05-16T01:34:51.540Z,4.41
2016-05-16T01:35:01.384Z,4.45
2016-05-16T01:35:11.386Z,4.48
2016-05-16T01:35:21.386Z,4.45
2016-05-16T01:35:31.792Z,4.55
2016-05-16T01:35:41.511Z,4.51
2016-05-16T01:35:51.448Z,4.52
2016-05-16T01:36:01.401Z,4.54
2016-05-16T01:36:11.404Z,4.58
2016-05-16T01:36:21.420Z,4.59
2016-05-16T01:36:31.420Z,4.52
2016-05-16T01:36:41.420Z,4.52
2016-05-16T01:36:51.420Z,4.55
2016-05-16T01:37:01.436Z,4.55
2016-05-16T01:37:11.440Z,4.52
2016-05-16T01:37:21.440Z,4.52
2016-05-16T01:37:31.440Z,4.55
2016-05-16T01:37:41.455Z,4.6
2016-05-16T01:37:51.455Z,4.5
2016-05-16T01:38:01.299Z,4.52
2016-05-16T01:38:11.754Z,4.54
2016-05-16T01:38:21.317Z,4.59
2016-05-16T01:38:31.473Z,4.58
2016-05-16T01:38:41.660Z,4.58
2016-05-16T01:38:51.473Z,4.63
2016-05-16T01:39:01.489Z,4.55
2016-05-16T01:39:11.491Z,4.63
2016-05-16T01:39:21.491Z,4.6
2016-05-16T01:39:31.491Z,4.6
2016-05-16T01:39:41.350Z,4.58
2016-05-16T01:39:51.350Z,4.69
2016-05-16T01:40:01.553Z,4.58
2016-05-16T01:40:11.526Z,4.66
2016-05-16T01:40:21.526Z,4.67
2016-05-16T01:40:31.526Z,4.73
2016-05-16T01:40:41.526Z,4.63
2016-05-16T01:40:51.541Z,4.69
2016-05-16T01:41:01.541Z,4.63
2016-05-16T01:41:11.387Z,4.66
2016-05-16T01:41:21.543Z,4.7
2016-05-16T01:41:31.543Z,4.67
2016-05-16T01:41:41.559Z,4.65
2016-05-16T01:41:51.559Z,4.69
2016-05-16T01:42:01.731Z,4.69
2016-05-16T01:42:11.561Z,4.67
2016-05-16T01:42:21.577Z,4.7
2016-05-16T01:42:31.577Z,4.65
2016-05-16T01:42:41.420Z,4.7
2016-05-16T01:42:51.592Z,4.65
2016-05-16T01:43:01.577Z,4.67
2016-05-16T01:43:11.628Z,4.8
2016-05-16T01:43:21.659Z,4.66
2016-05-16T01:43:31.596Z,4.7
2016-05-16T01:43:41.612Z,4.67
2016-05-16T01:43:51.628Z,4.73
2016-05-16T01:44:01.628Z,4.78
2016-05-16T01:44:11.614Z,4.7
2016-05-16T01:44:21.614Z,4.75
2016-05-16T01:44:31.630Z,4.75
2016-05-16T01:44:41.630Z,4.73
2016-05-16T01:44:51.630Z,4.69
2016-05-16T01:45:01.645Z,4.7
2016-05-16T01:45:11.632Z,4.73
2016-05-16T01:45:21.647Z,4.73
2016-05-16T01:45:31.647Z,4.86
2016-05-16T01:45:41.647Z,4.75
2016-05-16T01:45:51.663Z,4.75
2016-05-16T01:46:01.507Z,4.78
2016-05-16T01:46:11.667Z,4.84
2016-05-16T01:46:21.667Z,4.8
2016-05-16T01:46:31.526Z,4.72
2016-05-16T01:46:41.682Z,4.8
2016-05-16T01:46:51.682Z,4.73
2016-05-16T01:47:01.682Z,4.72
2016-05-16T01:47:11.700Z,4.75
2016-05-16T01:47:21.684Z,4.7
2016-05-16T01:47:31.544Z,4.8
2016-05-16T01:47:41.700Z,4.85
2016-05-16T01:47:51.544Z,4.85
2016-05-16T01:48:01.700Z,4.75
2016-05-16T01:48:11.718Z,4.85
2016-05-16T01:48:21.561Z,4.88
2016-05-16T01:48:31.577Z,4.86
2016-05-16T01:48:41.733Z,4.82
2016-05-16T01:48:51.577Z,4.84
2016-05-16T01:49:01.733Z,4.84
2016-05-16T01:49:11.737Z,4.82
2016-05-16T01:49:21.753Z,4.85
2016-05-16T01:49:31.753Z,4.88
2016-05-16T01:49:41.628Z,4.86
2016-05-16T01:49:52.550Z,4.8
2016-05-16T01:50:01.769Z,4.94
2016-05-16T01:50:12.208Z,4.86
2016-05-16T01:50:21.771Z,4.85
2016-05-16T01:50:31.771Z,4.99
2016-05-16T01:50:41.771Z,4.86
2016-05-16T01:50:51.817Z,4.94
2016-05-16T01:51:01.786Z,4.84
2016-05-16T01:51:11.819Z,4.96
2016-05-16T01:51:21.835Z,4.97
2016-05-16T01:51:31.835Z,5.03
2016-05-16T01:51:41.850Z,5.03
2016-05-16T01:51:51.835Z,5.1
2016-05-16T01:52:01.835Z,4.99
2016-05-16T01:52:11.738Z,5.04
2016-05-16T01:52:21.910Z,4.99
2016-05-16T01:52:40.707Z,4.97
2016-05-16T01:52:50.691Z,5.07
2016-05-16T01:53:00.691Z,5.1
2016-05-16T01:53:10.578Z,5.06
2016-05-16T01:53:20.734Z,5.09
2016-05-16T01:53:30.750Z,5.21
2016-05-16T01:53:40.750Z,5.13
2016-05-16T01:53:50.766Z,5.12
2016-05-16T01:54:00.750Z,5.13
2016-05-16T01:54:10.792Z,5.06
2016-05-16T01:54:20.808Z,5.13
2016-05-16T01:54:30.808Z,5.2
2016-05-16T01:54:40.808Z,5.18
2016-05-16T01:54:50.808Z,5.15
2016-05-16T01:55:00.823Z,5.15
2016-05-16T01:55:10.867Z,5.21
2016-05-16T01:55:20.883Z,5.24
2016-05-16T01:55:30.883Z,5.25
2016-05-16T01:55:40.867Z,5.18
2016-05-16T01:55:50.883Z,5.25
2016-05-16T01:56:00.883Z,5.3
2016-05-16T01:56:11.203Z,5.21
2016-05-16T01:56:20.921Z,5.24
2016-05-16T01:56:30.937Z,5.31
2016-05-16T01:56:40.921Z,5.22
2016-05-16T01:56:50.937Z,5.22
2016-05-16T01:57:00.921Z,5.21
2016-05-16T01:57:10.954Z,5.3
2016-05-16T01:57:20.954Z,5.25
2016-05-16T01:57:30.954Z,5.18
2016-05-16T01:57:40.970Z,5.21
2016-05-16T01:57:50.813Z,5.22
2016-05-16T01:58:00.970Z,5.35
2016-05-16T01:58:10.988Z,5.2
2016-05-16T01:58:21.003Z,5.3
2016-05-16T01:58:31.003Z,5.27
2016-05-16T01:58:41.003Z,5.36
2016-05-16T01:58:51.003Z,5.31
2016-05-16T01:59:01.019Z,5.35
2016-05-16T01:59:11.036Z,5.35
2016-05-16T01:59:21.098Z,5.28
2016-05-16T01:59:31.083Z,5.28
2016-05-16T01:59:41.036Z,5.3
2016-05-16T01:59:52.614Z,5.36
2016-05-16T02:00:01.067Z,5.35
2016-05-16T02:00:11.069Z,5.33
2016-05-16T02:00:21.084Z,5.36
2016-05-16T02:00:31.084Z,5.35
2016-05-16T02:00:41.147Z,5.31
2016-05-16T02:00:51.084Z,5.28
2016-05-16T02:01:01.084Z,5.28
2016-05-16T02:01:10.954Z,5.4
2016-05-16T02:01:21.125Z,5.43
2016-05-16T02:01:31.110Z,5.38
2016-05-16T02:01:41.125Z,5.33
2016-05-16T02:01:51.125Z,5.38
2016-05-16T02:02:01.125Z,5.45
2016-05-16T02:02:11.150Z,5.46
2016-05-16T02:02:21.134Z,5.38
2016-05-16T02:02:31.150Z,5.45
2016-05-16T02:02:41.150Z,5.48
2016-05-16T02:02:51.150Z,5.45
2016-05-16T02:03:01.166Z,5.43
2016-05-16T02:03:11.174Z,5.38
2016-05-16T02:03:21.174Z,5.42
2016-05-16T02:03:31.174Z,5.45
2016-05-16T02:03:41.174Z,5.53
2016-05-16T02:03:51.033Z,5.46
2016-05-16T02:04:01.189Z,5.51
2016-05-16T02:04:11.197Z,5.46
2016-05-16T02:04:21.057Z,5.49
2016-05-16T02:04:31.197Z,5.46
2016-05-16T02:04:41.213Z,5.48
2016-05-16T02:04:51.400Z,5.53
2016-05-16T02:05:01.213Z,5.46
2016-05-16T02:05:11.237Z,5.57
2016-05-16T02:05:21.783Z,5.6
2016-05-16T02:05:31.080Z,5.57
2016-05-16T02:05:41.252Z,5.54
2016-05-16T02:05:51.252Z,5.54
2016-05-16T02:06:01.252Z,5.6
2016-05-16T02:06:11.257Z,5.51
2016-05-16T02:06:21.257Z,5.53
2016-05-16T02:06:31.257Z,5.57
2016-05-16T02:06:41.273Z,5.58
2016-05-16T02:06:51.273Z,5.57
2016-05-16T02:07:01.273Z,5.58
2016-05-16T02:07:11.293Z,5.6
2016-05-16T02:07:21.137Z,5.58
2016-05-16T02:07:31.293Z,5.58
2016-05-16T02:07:41.309Z,5.58
2016-05-16T02:07:51.309Z,5.64
2016-05-16T02:08:01.309Z,5.58
2016-05-16T02:08:11.313Z,5.58
2016-05-16T02:08:21.313Z,5.49
2016-05-16T02:08:31.329Z,5.54
2016-05-16T02:08:41.329Z,5.53
2016-05-16T02:08:51.329Z,5.54
2016-05-16T02:09:01.329Z,5.63
2016-05-16T02:09:11.334Z,5.6
2016-05-16T02:09:21.349Z,5.63
2016-05-16T02:09:31.365Z,5.63
2016-05-16T02:09:41.349Z,5.6
2016-05-16T02:09:51.365Z,5.61
2016-05-16T02:10:01.365Z,5.61
2016-05-16T02:10:11.370Z,5.58
2016-05-16T02:10:21.370Z,5.57
2016-05-16T02:10:31.386Z,5.61
2016-05-16T02:10:41.386Z,5.58
2016-05-16T02:10:51.386Z,5.63
2016-05-16T02:11:01.386Z,5.65
2016-05-16T02:11:11.405Z,5.63
2016-05-16T02:11:21.405Z,5.71
2016-05-16T02:11:31.405Z,5.64
2016-05-16T02:11:41.421Z,5.61
2016-05-16T02:11:51.405Z,5.61
2016-05-16T02:12:01.265Z,5.6
2016-05-16T02:12:11.424Z,5.61
2016-05-16T02:12:21.439Z,5.65
2016-05-16T02:12:31.424Z,5.61
2016-05-16T02:12:41.283Z,5.64
2016-05-16T02:12:51.439Z,5.64
2016-05-16T02:13:01.439Z,5.64
2016-05-16T02:13:11.442Z,5.64
2016-05-16T02:13:21.458Z,5.71
2016-05-16T02:13:31.458Z,5.6
2016-05-16T02:13:41.302Z,5.61
2016-05-16T02:13:51.458Z,5.68
2016-05-16T02:14:01.474Z,5.63
2016-05-16T02:14:11.321Z,5.64
2016-05-16T02:14:21.493Z,5.64
2016-05-16T02:14:31.493Z,5.67
2016-05-16T02:14:41.493Z,5.74
2016-05-16T02:14:51.493Z,5.6
2016-05-16T02:15:01.493Z,5.76
2016-05-16T02:15:11.512Z,5.63
2016-05-16T02:15:21.512Z,5.72
2016-05-16T02:15:31.528Z,5.76
2016-05-16T02:15:41.512Z,5.75
2016-05-16T02:15:51.528Z,5.67
2016-05-16T02:16:01.528Z,5.71
2016-05-16T02:16:11.531Z,5.76